sensor_id;sensor_type;location;lat;lon;timestamp;pressure;altitude;pressure_sealevel;temperature;humidity
62152;BME280;48139;47.474;19.034;2023-05-11T03:43:55;100456.50;;;13.04;77.77
62152;BME280;48139;47.474;19.034;2023-05-11T03:47:02;100456.50;;;13.04;77.77
62152;BME280;48139;47.474;19.034;2023-05-11T03:50:07;100464.31;;;12.57;79.10
62152;BME280;48139;47.474;19.034;2023-05-11T03:53:11;100461.09;;;12.52;77.74
62152;BME280;48139;47.474;19.034;2023-05-11T03:56:13;100466.94;;;12.57;77.39
62152;BME280;48139;47.474;19.034;2023-05-11T03:59:16;100462.72;;;12.55;76.90
62152;BME280;48139;47.474;19.034;2023-05-11T04:02:19;100467.97;;;12.55;77.77
62152;BME280;48139;47.474;19.034;2023-05-11T04:05:22;100468.66;;;12.58;77.57
62152;BME280;48139;47.474;19.034;2023-05-11T04:08:25;100470.69;;;12.53;76.35
62152;BME280;48139;47.474;19.034;2023-05-11T04:11:28;100472.81;;;12.62;74.72
62152;BME280;48139;47.474;19.034;2023-05-11T04:14:31;100468.56;;;12.60;74.42
62152;BME280;48139;47.474;19.034;2023-05-11T04:17:34;100473.84;;;12.60;73.76
62152;BME280;48139;47.474;19.034;2023-05-11T04:20:36;100478.91;;;12.63;74.04
62152;BME280;48139;47.474;19.034;2023-05-11T04:23:39;100479.53;;;12.68;73.28
62152;BME280;48139;47.474;19.034;2023-05-11T04:26:41;100475.62;;;12.75;72.47
62152;BME280;48139;47.474;19.034;2023-05-11T04:29:44;100489.19;;;12.67;72.94
62152;BME280;48139;47.474;19.034;2023-05-11T04:32:46;100485.19;;;12.76;72.78
62152;BME280;48139;47.474;19.034;2023-05-11T04:35:50;100489.53;;;12.77;72.78
62152;BME280;48139;47.474;19.034;2023-05-11T04:38:53;100491.56;;;12.87;72.76
62152;BME280;48139;47.474;19.034;2023-05-11T04:41:56;100498.19;;;12.94;72.44
62152;BME280;48139;47.474;19.034;2023-05-11T04:44:58;100500.41;;;13.02;72.16
62152;BME280;48139;47.474;19.034;2023-05-11T04:48:01;100499.66;;;13.00;73.30
62152;BME280;48139;47.474;19.034;2023-05-11T04:51:04;100500.34;;;13.04;73.32
62152;BME280;48139;47.474;19.034;2023-05-11T04:54:08;100499.50;;;13.19;73.31
62152;BME280;48139;47.474;19.034;2023-05-11T04:57:11;100499.53;;;13.35;69.20
62152;BME280;48139;47.474;19.034;2023-05-11T05:00:14;100503.75;;;13.37;66.35
62152;BME280;48139;47.474;19.034;2023-05-11T05:03:17;100504.44;;;13.41;68.18
62152;BME280;48139;47.474;19.034;2023-05-11T05:06:20;100507.03;;;13.56;66.08
62152;BME280;48139;47.474;19.034;2023-05-11T05:09:22;100502.63;;;13.57;62.72
62152;BME280;48139;47.474;19.034;2023-05-11T05:12:25;100503.03;;;13.65;62.40
62152;BME280;48139;47.474;19.034;2023-05-11T05:15:27;100505.75;;;13.63;61.08
62152;BME280;48139;47.474;19.034;2023-05-11T05:18:30;100506.69;;;13.62;61.69
62152;BME280;48139;47.474;19.034;2023-05-11T05:21:33;100512.78;;;13.79;60.00
62152;BME280;48139;47.474;19.034;2023-05-11T05:24:37;100511.78;;;13.65;60.05
62152;BME280;48139;47.474;19.034;2023-05-11T05:27:39;100517.97;;;13.64;59.70
62152;BME280;48139;47.474;19.034;2023-05-11T05:30:42;100512.91;;;13.61;59.10
62152;BME280;48139;47.474;19.034;2023-05-11T05:33:45;100515.78;;;13.72;58.67
62152;BME280;48139;47.474;19.034;2023-05-11T05:36:49;100515.13;;;13.99;57.16
62152;BME280;48139;47.474;19.034;2023-05-11T05:39:52;100513.06;;;14.04;57.34
62152;BME280;48139;47.474;19.034;2023-05-11T05:42:55;100510.34;;;14.20;57.29
62152;BME280;48139;47.474;19.034;2023-05-11T05:45:58;100513.94;;;14.33;56.74
62152;BME280;48139;47.474;19.034;2023-05-11T05:49:01;100522.63;;;14.35;55.86
62152;BME280;48139;47.474;19.034;2023-05-11T05:52:04;100521.09;;;14.31;56.22
62152;BME280;48139;47.474;19.034;2023-05-11T05:55:07;100522.00;;;14.45;55.39
62152;BME280;48139;47.474;19.034;2023-05-11T05:58:09;100526.31;;;14.46;55.44
62152;BME280;48139;47.474;19.034;2023-05-11T06:01:13;100531.63;;;14.61;54.89
62152;BME280;48139;47.474;19.034;2023-05-11T06:04:15;100530.84;;;14.59;55.54
62152;BME280;48139;47.474;19.034;2023-05-11T06:07:18;100524.06;;;14.83;55.20
62152;BME280;48139;47.474;19.034;2023-05-11T06:10:21;100529.44;;;14.96;54.96
62152;BME280;48139;47.474;19.034;2023-05-11T06:13:24;100529.44;;;14.96;55.45
62152;BME280;48139;47.474;19.034;2023-05-11T06:16:28;100531.59;;;15.17;54.51
62152;BME280;48139;47.474;19.034;2023-05-11T06:19:35;100527.19;;;15.30;54.28
62152;BME280;48139;47.474;19.034;2023-05-11T06:22:38;100523.22;;;15.38;53.99
62152;BME280;48139;47.474;19.034;2023-05-11T06:25:41;100524.34;;;15.48;54.53
62152;BME280;48139;47.474;19.034;2023-05-11T06:28:44;100525.28;;;15.47;54.49
62152;BME280;48139;47.474;19.034;2023-05-11T06:31:47;100525.69;;;15.55;53.54
62152;BME280;48139;47.474;19.034;2023-05-11T06:34:55;100524.44;;;15.60;53.46
62152;BME280;48139;47.474;19.034;2023-05-11T06:37:58;100530.25;;;15.65;52.43
62152;BME280;48139;47.474;19.034;2023-05-11T06:41:01;100531.56;;;15.72;54.01
62152;BME280;48139;47.474;19.034;2023-05-11T06:44:04;100519.63;;;15.80;53.75
62152;BME280;48139;47.474;19.034;2023-05-11T06:47:11;100524.25;;;15.76;54.46
62152;BME280;48139;47.474;19.034;2023-05-11T06:50:14;100511.78;;;16.05;53.78
62152;BME280;48139;47.474;19.034;2023-05-11T06:53:17;100520.12;;;16.24;52.76
62152;BME280;48139;47.474;19.034;2023-05-11T06:56:20;100513.81;;;16.39;53.24
62152;BME280;48139;47.474;19.034;2023-05-11T06:59:23;100516.38;;;16.66;52.42
62152;BME280;48139;47.474;19.034;2023-05-11T07:02:26;100512.75;;;16.54;51.35
62152;BME280;48139;47.474;19.034;2023-05-11T07:05:29;100504.50;;;16.84;50.78
62152;BME280;48139;47.474;19.034;2023-05-11T07:08:32;100503.50;;;17.11;50.13
62152;BME280;48139;47.474;19.034;2023-05-11T07:11:35;100500.19;;;17.44;47.30
62152;BME280;48139;47.474;19.034;2023-05-11T07:14:38;100499.34;;;17.43;46.87
62152;BME280;48139;47.474;19.034;2023-05-11T07:17:41;100497.03;;;17.39;45.69
62152;BME280;48139;47.474;19.034;2023-05-11T07:20:44;100501.53;;;17.25;46.24
62152;BME280;48139;47.474;19.034;2023-05-11T07:23:51;100503.50;;;17.11;46.73
62152;BME280;48139;47.474;19.034;2023-05-11T07:26:53;100499.38;;;17.30;46.61
62152;BME280;48139;47.474;19.034;2023-05-11T07:29:58;100501.50;;;17.38;46.96
62152;BME280;48139;47.474;19.034;2023-05-11T07:33:00;100504.25;;;17.73;45.36
62152;BME280;48139;47.474;19.034;2023-05-11T07:36:05;100501.31;;;17.65;44.83
62152;BME280;48139;47.474;19.034;2023-05-11T07:39:08;100490.69;;;17.89;44.93
62152;BME280;48139;47.474;19.034;2023-05-11T07:42:12;100496.47;;;17.94;43.54
62152;BME280;48139;47.474;19.034;2023-05-11T07:45:17;100493.41;;;18.11;47.48
62152;BME280;48139;47.474;19.034;2023-05-11T07:48:20;100496.06;;;18.11;43.02
62152;BME280;48139;47.474;19.034;2023-05-11T07:51:23;100491.22;;;18.05;43.81
62152;BME280;48139;47.474;19.034;2023-05-11T07:54:26;100497.31;;;17.94;44.49
62152;BME280;48139;47.474;19.034;2023-05-11T07:57:28;100494.84;;;18.15;43.87
62152;BME280;48139;47.474;19.034;2023-05-11T08:00:31;100495.44;;;18.07;43.62
62152;BME280;48139;47.474;19.034;2023-05-11T08:03:34;100494.87;;;18.26;43.83
62152;BME280;48139;47.474;19.034;2023-05-11T08:06:37;100506.09;;;18.30;43.33
62152;BME280;48139;47.474;19.034;2023-05-11T08:09:40;100494.87;;;18.37;44.01
62152;BME280;48139;47.474;19.034;2023-05-11T08:12:42;100496.38;;;18.52;43.34
62152;BME280;48139;47.474;19.034;2023-05-11T08:15:45;100499.00;;;18.52;42.84
62152;BME280;48139;47.474;19.034;2023-05-11T08:18:48;100491.69;;;18.78;43.14
62152;BME280;48139;47.474;19.034;2023-05-11T08:21:51;100495.06;;;18.69;42.86
62152;BME280;48139;47.474;19.034;2023-05-11T08:24:53;100493.38;;;18.57;42.71
62152;BME280;48139;47.474;19.034;2023-05-11T08:27:57;100488.03;;;18.46;42.84
62152;BME280;48139;47.474;19.034;2023-05-11T08:30:59;100481.91;;;18.57;42.73
62152;BME280;48139;47.474;19.034;2023-05-11T08:34:02;100485.28;;;18.47;43.09
62152;BME280;48139;47.474;19.034;2023-05-11T08:37:05;100479.69;;;18.39;42.39
62152;BME280;48139;47.474;19.034;2023-05-11T08:40:09;100476.38;;;18.60;42.69
62152;BME280;48139;47.474;19.034;2023-05-11T08:43:17;100461.75;;;19.10;42.36
62152;BME280;48139;47.474;19.034;2023-05-11T08:46:22;100459.66;;;19.13;40.71
62152;BME280;48139;47.474;19.034;2023-05-11T08:49:25;100460.81;;;19.31;40.76
62152;BME280;48139;47.474;19.034;2023-05-11T08:52:29;100463.13;;;19.47;40.32
62152;BME280;48139;47.474;19.034;2023-05-11T08:55:32;100451.28;;;19.72;40.20
62152;BME280;48139;47.474;19.034;2023-05-11T08:58:35;100459.94;;;19.53;40.54
62152;BME280;48139;47.474;19.034;2023-05-11T09:01:40;100459.09;;;19.53;40.52
62152;BME280;48139;47.474;19.034;2023-05-11T09:04:44;100444.97;;;19.52;40.53
62152;BME280;48139;47.474;19.034;2023-05-11T09:07:52;100448.09;;;19.57;40.67
62152;BME280;48139;47.474;19.034;2023-05-11T09:10:57;100447.84;;;19.60;40.59
62152;BME280;48139;47.474;19.034;2023-05-11T09:14:00;100447.22;;;19.89;39.84
62152;BME280;48139;47.474;19.034;2023-05-11T09:17:03;100435.81;;;20.49;39.33
62152;BME280;48139;47.474;19.034;2023-05-11T09:20:06;100439.94;;;20.63;38.58
62152;BME280;48139;47.474;19.034;2023-05-11T09:23:15;100447.00;;;20.22;38.44
62152;BME280;48139;47.474;19.034;2023-05-11T09:26:19;100427.25;;;20.25;39.88
62152;BME280;48139;47.474;19.034;2023-05-11T09:29:23;100431.03;;;20.43;40.07
62152;BME280;48139;47.474;19.034;2023-05-11T09:32:45;100420.63;;;20.09;38.93
62152;BME280;48139;47.474;19.034;2023-05-11T09:35:51;100419.00;;;19.77;38.95
62152;BME280;48139;47.474;19.034;2023-05-11T09:38:54;100426.78;;;20.10;40.50
62152;BME280;48139;47.474;19.034;2023-05-11T09:48:38;100408.66;;;19.73;37.00
62152;BME280;48139;47.474;19.034;2023-05-11T09:51:40;100401.59;;;20.14;37.46
62152;BME280;48139;47.474;19.034;2023-05-11T09:54:49;100413.59;;;20.60;37.18
62152;BME280;48139;47.474;19.034;2023-05-11T09:57:54;100407.94;;;20.83;37.01
62152;BME280;48139;47.474;19.034;2023-05-11T10:00:57;100406.22;;;21.22;34.75
62152;BME280;48139;47.474;19.034;2023-05-11T10:04:01;100408.97;;;21.11;34.50
62152;BME280;48139;47.474;19.034;2023-05-11T10:07:24;100409.53;;;21.15;34.78
62152;BME280;48139;47.474;19.034;2023-05-11T10:10:29;100393.81;;;21.12;33.23
62152;BME280;48139;47.474;19.034;2023-05-11T10:13:32;100394.91;;;21.00;32.89
62152;BME280;48139;47.474;19.034;2023-05-11T10:16:35;100395.03;;;20.88;35.28
62152;BME280;48139;47.474;19.034;2023-05-11T10:19:38;100381.59;;;20.90;34.56
62152;BME280;48139;47.474;19.034;2023-05-11T10:22:41;100389.44;;;21.01;34.81
62152;BME280;48139;47.474;19.034;2023-05-11T10:25:43;100386.06;;;20.80;33.81
62152;BME280;48139;47.474;19.034;2023-05-11T10:28:46;100382.28;;;20.82;33.78
62152;BME280;48139;47.474;19.034;2023-05-11T10:31:50;100385.66;;;20.84;33.62
62152;BME280;48139;47.474;19.034;2023-05-11T10:34:55;100377.91;;;20.81;33.05
62152;BME280;48139;47.474;19.034;2023-05-11T10:37:59;100383.25;;;20.72;34.13
62152;BME280;48139;47.474;19.034;2023-05-11T10:41:58;100388.63;;;21.01;32.43
62152;BME280;48139;47.474;19.034;2023-05-11T10:51:39;100377.41;;;20.97;34.61
62152;BME280;48139;47.474;19.034;2023-05-11T10:58:41;100360.66;;;20.05;34.45
62152;BME280;48139;47.474;19.034;2023-05-11T11:01:45;100372.78;;;20.40;34.11
62152;BME280;48139;47.474;19.034;2023-05-11T11:04:50;100363.41;;;20.45;34.12
62152;BME280;48139;47.474;19.034;2023-05-11T11:08:00;100358.25;;;20.63;34.62
62152;BME280;48139;47.474;19.034;2023-05-11T11:11:33;100353.69;;;20.94;34.74
62152;BME280;48139;47.474;19.034;2023-05-11T11:14:59;100356.09;;;20.97;33.90
62152;BME280;48139;47.474;19.034;2023-05-11T11:21:40;100346.41;;;20.96;32.48
62152;BME280;48139;47.474;19.034;2023-05-11T11:24:43;100349.28;;;21.23;34.19
62152;BME280;48139;47.474;19.034;2023-05-11T11:31:25;100340.34;;;20.75;32.33
62152;BME280;48139;47.474;19.034;2023-05-11T11:37:59;100334.53;;;21.10;32.18
62152;BME280;48139;47.474;19.034;2023-05-11T11:41:07;100331.31;;;21.16;32.53
62152;BME280;48139;47.474;19.034;2023-05-11T11:44:24;100336.53;;;21.17;33.67
62152;BME280;48139;47.474;19.034;2023-05-11T11:47:28;100332.53;;;21.12;32.22
62152;BME280;48139;47.474;19.034;2023-05-11T11:50:32;100325.28;;;21.04;32.23
62152;BME280;48139;47.474;19.034;2023-05-11T11:56:39;100330.69;;;20.93;33.17
62152;BME280;48139;47.474;19.034;2023-05-11T11:59:46;100341.91;;;20.77;33.31
62152;BME280;48139;47.474;19.034;2023-05-11T12:02:48;100331.13;;;20.88;32.69
62152;BME280;48139;47.474;19.034;2023-05-11T12:05:54;100324.28;;;21.15;31.82
62152;BME280;48139;47.474;19.034;2023-05-11T12:09:02;100324.69;;;21.58;32.34
62152;BME280;48139;47.474;19.034;2023-05-11T12:12:07;100322.59;;;21.52;31.99
62152;BME280;48139;47.474;19.034;2023-05-11T12:15:27;100315.16;;;21.46;32.05
62152;BME280;48139;47.474;19.034;2023-05-11T12:18:31;100312.50;;;21.37;32.33
62152;BME280;48139;47.474;19.034;2023-05-11T12:21:34;100321.69;;;20.56;32.45
62152;BME280;48139;47.474;19.034;2023-05-11T12:24:37;100314.44;;;20.86;31.63
62152;BME280;48139;47.474;19.034;2023-05-11T12:27:53;100307.47;;;21.24;31.58
62152;BME280;48139;47.474;19.034;2023-05-11T12:30:59;100308.03;;;21.47;32.17
62152;BME280;48139;47.474;19.034;2023-05-11T12:34:02;100304.81;;;21.05;32.34
62152;BME280;48139;47.474;19.034;2023-05-11T12:37:05;100304.78;;;20.85;32.76
62152;BME280;48139;47.474;19.034;2023-05-11T12:40:11;100310.81;;;20.97;32.55
62152;BME280;48139;47.474;19.034;2023-05-11T12:43:18;100291.34;;;20.97;33.13
62152;BME280;48139;47.474;19.034;2023-05-11T12:46:21;100293.03;;;21.26;32.33
62152;BME280;48139;47.474;19.034;2023-05-11T12:49:25;100293.31;;;21.04;33.80
62152;BME280;48139;47.474;19.034;2023-05-11T12:52:28;100287.97;;;21.14;33.09
62152;BME280;48139;47.474;19.034;2023-05-11T12:55:34;100290.22;;;21.28;32.40
62152;BME280;48139;47.474;19.034;2023-05-11T12:58:38;100288.37;;;21.38;31.14
62152;BME280;48139;47.474;19.034;2023-05-11T13:01:41;100283.91;;;21.48;31.93
62152;BME280;48139;47.474;19.034;2023-05-11T13:04:45;100280.41;;;21.28;31.18
62152;BME280;48139;47.474;19.034;2023-05-11T13:08:00;100279.53;;;21.38;31.94
62152;BME280;48139;47.474;19.034;2023-05-11T13:11:22;100274.50;;;21.25;30.96
62152;BME280;48139;47.474;19.034;2023-05-11T13:14:30;100262.12;;;21.43;30.44
62152;BME280;48139;47.474;19.034;2023-05-11T13:17:37;100259.47;;;21.53;31.12
62152;BME280;48139;47.474;19.034;2023-05-11T13:20:40;100255.44;;;21.86;31.14
62152;BME280;48139;47.474;19.034;2023-05-11T13:23:48;100252.06;;;21.84;30.20
62152;BME280;48139;47.474;19.034;2023-05-11T13:26:51;100248.59;;;21.73;30.32
62152;BME280;48139;47.474;19.034;2023-05-11T13:29:54;100251.28;;;21.73;30.69
62152;BME280;48139;47.474;19.034;2023-05-11T13:32:57;100235.84;;;21.95;29.82
62152;BME280;48139;47.474;19.034;2023-05-11T13:36:00;100252.78;;;22.13;30.59
62152;BME280;48139;47.474;19.034;2023-05-11T13:39:03;100248.81;;;21.90;31.02
62152;BME280;48139;47.474;19.034;2023-05-11T13:42:06;100244.25;;;21.63;31.80
62152;BME280;48139;47.474;19.034;2023-05-11T13:45:09;100243.47;;;21.43;32.01
62152;BME280;48139;47.474;19.034;2023-05-11T13:48:13;100242.28;;;21.18;32.46
62152;BME280;48139;47.474;19.034;2023-05-11T13:51:15;100233.00;;;21.13;32.65
62152;BME280;48139;47.474;19.034;2023-05-11T13:54:18;100225.72;;;21.24;32.10
62152;BME280;48139;47.474;19.034;2023-05-11T13:57:22;100225.72;;;21.34;32.51
62152;BME280;48139;47.474;19.034;2023-05-11T14:00:28;100234.44;;;20.98;32.08
62152;BME280;48139;47.474;19.034;2023-05-11T14:03:31;100231.47;;;21.01;32.98
62152;BME280;48139;47.474;19.034;2023-05-11T14:06:34;100224.19;;;21.03;31.88
62152;BME280;48139;47.474;19.034;2023-05-11T14:09:37;100224.63;;;20.98;32.11
62152;BME280;48139;47.474;19.034;2023-05-11T14:12:40;100224.03;;;20.94;31.62
62152;BME280;48139;47.474;19.034;2023-05-11T14:15:43;100221.13;;;20.78;32.02
62152;BME280;48139;47.474;19.034;2023-05-11T14:18:45;100217.06;;;20.84;31.90
62152;BME280;48139;47.474;19.034;2023-05-11T14:21:48;100218.72;;;20.94;32.31
62152;BME280;48139;47.474;19.034;2023-05-11T14:24:50;100223.22;;;20.94;31.80
62152;BME280;48139;47.474;19.034;2023-05-11T14:27:53;100215.66;;;20.89;31.72
62152;BME280;48139;47.474;19.034;2023-05-11T14:30:56;100221.09;;;20.88;31.27
62152;BME280;48139;47.474;19.034;2023-05-11T14:33:59;100212.16;;;20.70;31.92
62152;BME280;48139;47.474;19.034;2023-05-11T14:37:02;100204.03;;;20.71;31.30
62152;BME280;48139;47.474;19.034;2023-05-11T14:40:05;100204.84;;;20.81;31.84
62152;BME280;48139;47.474;19.034;2023-05-11T14:43:08;100203.44;;;20.87;32.03
62152;BME280;48139;47.474;19.034;2023-05-11T14:46:11;100200.38;;;20.82;32.29
62152;BME280;48139;47.474;19.034;2023-05-11T14:49:14;100207.41;;;20.73;32.07
62152;BME280;48139;47.474;19.034;2023-05-11T14:52:17;100203.75;;;20.65;32.28
62152;BME280;48139;47.474;19.034;2023-05-11T14:55:19;100202.06;;;20.54;32.47
62152;BME280;48139;47.474;19.034;2023-05-11T14:58:23;100202.19;;;20.43;32.52
62152;BME280;48139;47.474;19.034;2023-05-11T15:01:25;100206.13;;;20.48;32.54
62152;BME280;48139;47.474;19.034;2023-05-11T15:04:28;100205.97;;;20.40;32.66
62152;BME280;48139;47.474;19.034;2023-05-11T15:07:31;100200.50;;;20.32;33.03
62152;BME280;48139;47.474;19.034;2023-05-11T15:10:34;100208.75;;;20.29;33.08
62152;BME280;48139;47.474;19.034;2023-05-11T15:13:41;100206.19;;;20.18;33.37
62152;BME280;48139;47.474;19.034;2023-05-11T15:16:44;100199.63;;;20.22;33.36
62152;BME280;48139;47.474;19.034;2023-05-11T15:19:48;100199.87;;;20.09;33.61
62152;BME280;48139;47.474;19.034;2023-05-11T15:22:51;100205.06;;;20.11;33.19
62152;BME280;48139;47.474;19.034;2023-05-11T15:25:53;100209.56;;;20.20;33.45
62152;BME280;48139;47.474;19.034;2023-05-11T15:28:56;100202.00;;;20.16;33.79
62152;BME280;48139;47.474;19.034;2023-05-11T15:31:58;100212.75;;;20.04;33.89
62152;BME280;48139;47.474;19.034;2023-05-11T15:35:01;100213.28;;;19.98;33.78
62152;BME280;48139;47.474;19.034;2023-05-11T15:38:04;100208.28;;;20.05;33.95
62152;BME280;48139;47.474;19.034;2023-05-11T15:41:07;100216.94;;;19.97;34.12
62152;BME280;48139;47.474;19.034;2023-05-11T15:44:10;100215.06;;;19.88;34.84
62152;BME280;48139;47.474;19.034;2023-05-11T15:47:12;100219.63;;;19.77;35.25
62152;BME280;48139;47.474;19.034;2023-05-11T15:50:15;100216.44;;;19.73;35.73
62152;BME280;48139;47.474;19.034;2023-05-11T15:53:18;100223.13;;;19.67;36.07
62152;BME280;48139;47.474;19.034;2023-05-11T15:56:20;100224.47;;;19.62;35.96
62152;BME280;48139;47.474;19.034;2023-05-11T15:59:24;100223.19;;;19.56;36.12
62152;BME280;48139;47.474;19.034;2023-05-11T16:02:26;100220.72;;;19.44;36.64
62152;BME280;48139;47.474;19.034;2023-05-11T16:05:29;100221.69;;;19.43;37.08
